sensor_id;sensor_type;location;lat;lon;timestamp;pressure;altitude;pressure_sealevel;temperature;humidity
25232;BME280;13176;51.140;6.290;2023-04-04T00:02:04;102183.38;;;7.64;50.50
25232;BME280;13176;51.140;6.290;2023-04-04T00:04:30;102177.34;;;7.64;51.13
25232;BME280;13176;51.140;6.290;2023-04-04T00:06:57;102191.94;;;7.60;50.37
25232;BME280;13176;51.140;6.290;2023-04-04T00:09:23;102147.28;;;7.38;50.11
25232;BME280;13176;51.140;6.290;2023-04-04T00:11:50;102075.47;;;7.00;49.49
25232;BME280;13176;51.140;6.290;2023-04-04T00:14:16;102172.16;;;7.67;49.56
25232;BME280;13176;51.140;6.290;2023-04-04T00:16:43;102187.97;;;7.76;49.17
25232;BME280;13176;51.140;6.290;2023-04-04T00:19:09;102068.81;;;7.11;49.39
25232;BME280;13176;51.140;6.290;2023-04-04T00:21:39;102120.56;;;7.42;49.85
25232;BME280;13176;51.140;6.290;2023-04-04T00:24:06;102075.56;;;7.03;49.82
25232;BME280;13176;51.140;6.290;2023-04-04T00:26:32;102182.38;;;7.58;49.03
25232;BME280;13176;51.140;6.290;2023-04-04T00:28:59;102173.47;;;7.47;50.16
25232;BME280;13176;51.140;6.290;2023-04-04T00:31:26;102154.16;;;7.36;50.14
25232;BME280;13176;51.140;6.290;2023-04-04T00:33:52;102195.25;;;7.53;50.08
25232;BME280;13176;51.140;6.290;2023-04-04T00:36:19;102178.53;;;7.41;50.31
25232;BME280;13176;51.140;6.290;2023-04-04T00:38:45;102173.25;;;7.38;50.47
25232;BME280;13176;51.140;6.290;2023-04-04T00:41:12;102097.59;;;6.83;50.43
25232;BME280;13176;51.140;6.290;2023-04-04T00:43:39;102200.19;;;7.43;50.70
25232;BME280;13176;51.140;6.290;2023-04-04T00:46:06;102201.72;;;7.33;50.34
25232;BME280;13176;51.140;6.290;2023-04-04T00:48:33;102125.72;;;6.68;51.87
25232;BME280;13176;51.140;6.290;2023-04-04T00:51:01;102080.81;;;6.35;51.96
25232;BME280;13176;51.140;6.290;2023-04-04T00:53:27;102099.19;;;6.44;52.74
25232;BME280;13176;51.140;6.290;2023-04-04T00:55:54;102186.84;;;6.91;52.17
25232;BME280;13176;51.140;6.290;2023-04-04T00:58:21;102178.81;;;6.82;53.27
25232;BME280;13176;51.140;6.290;2023-04-04T01:00:47;102093.09;;;6.42;52.66
25232;BME280;13176;51.140;6.290;2023-04-04T01:03:14;102108.88;;;6.51;52.94
25232;BME280;13176;51.140;6.290;2023-04-04T01:05:40;102178.31;;;6.96;52.79
25232;BME280;13176;51.140;6.290;2023-04-04T01:08:07;102131.50;;;6.58;52.80
25232;BME280;13176;51.140;6.290;2023-04-04T01:10:33;102177.16;;;6.84;52.39
25232;BME280;13176;51.140;6.290;2023-04-04T01:13:00;102199.09;;;6.96;53.41
25232;BME280;13176;51.140;6.290;2023-04-04T01:15:27;102184.28;;;6.94;54.51
25232;BME280;13176;51.140;6.290;2023-04-04T01:17:56;102206.13;;;7.02;52.99
25232;BME280;13176;51.140;6.290;2023-04-04T01:20:25;102153.22;;;6.62;53.45
25232;BME280;13176;51.140;6.290;2023-04-04T01:22:53;102184.59;;;6.71;53.21
25232;BME280;13176;51.140;6.290;2023-04-04T01:25:30;102198.50;;;6.74;54.05
25232;BME280;13176;51.140;6.290;2023-04-04T01:27:58;102172.78;;;6.49;54.28
25232;BME280;13176;51.140;6.290;2023-04-04T01:30:31;102201.00;;;6.71;54.85
25232;BME280;13176;51.140;6.290;2023-04-04T01:33:18;102165.59;;;6.39;53.90
25232;BME280;13176;51.140;6.290;2023-04-04T01:35:54;102119.16;;;6.16;53.56
25232;BME280;13176;51.140;6.290;2023-04-04T01:39:02;102200.22;;;6.74;53.08
25232;BME280;13176;51.140;6.290;2023-04-04T01:41:32;102088.47;;;5.98;53.92
25232;BME280;13176;51.140;6.290;2023-04-04T01:44:00;102165.50;;;6.36;53.51
25232;BME280;13176;51.140;6.290;2023-04-04T01:46:28;102156.56;;;6.25;54.62
25232;BME280;13176;51.140;6.290;2023-04-04T01:48:54;102135.34;;;6.07;54.72
25232;BME280;13176;51.140;6.290;2023-04-04T01:51:21;102189.66;;;6.35;54.87
25232;BME280;13176;51.140;6.290;2023-04-04T01:53:49;102168.59;;;6.23;54.59
25232;BME280;13176;51.140;6.290;2023-04-04T01:56:15;102153.56;;;6.10;55.42
25232;BME280;13176;51.140;6.290;2023-04-04T01:58:41;102157.31;;;5.90;55.96
25232;BME280;13176;51.140;6.290;2023-04-04T02:01:09;102083.63;;;5.50;56.47
25232;BME280;13176;51.140;6.290;2023-04-04T02:03:35;102141.84;;;5.93;56.14
25232;BME280;13176;51.140;6.290;2023-04-04T02:06:02;102153.34;;;6.03;55.81
25232;BME280;13176;51.140;6.290;2023-04-04T02:08:28;102162.94;;;6.05;55.88
25232;BME280;13176;51.140;6.290;2023-04-04T02:10:57;102177.13;;;6.19;55.75
25232;BME280;13176;51.140;6.290;2023-04-04T02:13:24;102179.34;;;6.06;56.21
25232;BME280;13176;51.140;6.290;2023-04-04T02:15:50;102187.47;;;6.19;56.14
25232;BME280;13176;51.140;6.290;2023-04-04T02:18:17;102144.88;;;5.77;55.73
25232;BME280;13176;51.140;6.290;2023-04-04T02:20:44;102161.19;;;5.76;55.98
25232;BME280;13176;51.140;6.290;2023-04-04T02:23:10;102181.63;;;5.95;56.28
25232;BME280;13176;51.140;6.290;2023-04-04T02:25:37;102159.59;;;5.80;56.90
25232;BME280;13176;51.140;6.290;2023-04-04T02:28:03;102067.78;;;5.40;55.93
25232;BME280;13176;51.140;6.290;2023-04-04T02:30:29;102034.44;;;5.21;56.93
25232;BME280;13176;51.140;6.290;2023-04-04T02:32:57;102179.31;;;6.04;55.98
25232;BME280;13176;51.140;6.290;2023-04-04T02:35:24;102184.41;;;6.03;56.74
25232;BME280;13176;51.140;6.290;2023-04-04T02:37:50;102144.16;;;5.83;56.79
25232;BME280;13176;51.140;6.290;2023-04-04T02:40:17;102062.34;;;5.31;56.90
25232;BME280;13176;51.140;6.290;2023-04-04T02:42:44;102146.75;;;5.84;56.28
25232;BME280;13176;51.140;6.290;2023-04-04T02:45:10;102135.31;;;5.76;55.93
25232;BME280;13176;51.140;6.290;2023-04-04T02:47:40;102077.94;;;5.34;57.05
25232;BME280;13176;51.140;6.290;2023-04-04T02:50:08;102136.41;;;5.57;56.40
25232;BME280;13176;51.140;6.290;2023-04-04T02:52:35;102130.41;;;5.57;56.97
25232;BME280;13176;51.140;6.290;2023-04-04T02:55:01;102142.00;;;5.70;57.13
25232;BME280;13176;51.140;6.290;2023-04-04T02:57:28;102086.63;;;5.36;56.73
25232;BME280;13176;51.140;6.290;2023-04-04T02:59:55;102097.06;;;5.39;56.65
25232;BME280;13176;51.140;6.290;2023-04-04T03:02:23;102144.28;;;5.59;56.57
25232;BME280;13176;51.140;6.290;2023-04-04T03:04:49;102149.19;;;5.51;56.17
25232;BME280;13176;51.140;6.290;2023-04-04T03:07:16;102150.59;;;5.40;57.17
25232;BME280;13176;51.140;6.290;2023-04-04T03:09:42;102144.31;;;5.33;56.70
25232;BME280;13176;51.140;6.290;2023-04-04T03:12:12;102129.19;;;5.17;57.17
25232;BME280;13176;51.140;6.290;2023-04-04T03:14:38;102134.50;;;5.22;57.08
25232;BME280;13176;51.140;6.290;2023-04-04T03:17:05;102036.19;;;4.66;57.76
25232;BME280;13176;51.140;6.290;2023-04-04T03:19:31;102151.66;;;5.20;57.86
25232;BME280;13176;51.140;6.290;2023-04-04T03:21:58;102153.53;;;5.24;57.73
25232;BME280;13176;51.140;6.290;2023-04-04T03:24:24;102143.28;;;5.27;57.09
25232;BME280;13176;51.140;6.290;2023-04-04T03:26:50;102130.97;;;5.20;57.19
25232;BME280;13176;51.140;6.290;2023-04-04T03:29:17;102162.34;;;5.30;57.63
25232;BME280;13176;51.140;6.290;2023-04-04T03:31:43;102141.03;;;5.11;57.34
25232;BME280;13176;51.140;6.290;2023-04-04T03:34:09;102143.81;;;5.17;57.75
25232;BME280;13176;51.140;6.290;2023-04-04T03:36:36;102163.97;;;5.27;57.96
25232;BME280;13176;51.140;6.290;2023-04-04T03:39:03;102151.56;;;5.17;57.33
25232;BME280;13176;51.140;6.290;2023-04-04T03:41:29;102011.78;;;4.30;57.69
25232;BME280;13176;51.140;6.290;2023-04-04T03:43:56;102080.66;;;4.82;57.77
25232;BME280;13176;51.140;6.290;2023-04-04T03:46:22;102126.41;;;5.11;57.56
25232;BME280;13176;51.140;6.290;2023-04-04T03:48:49;102099.59;;;4.81;57.82
25232;BME280;13176;51.140;6.290;2023-04-04T03:51:22;102079.97;;;4.61;58.13
25232;BME280;13176;51.140;6.290;2023-04-04T03:53:48;102164.38;;;5.12;58.73
25232;BME280;13176;51.140;6.290;2023-04-04T03:56:15;102157.47;;;5.13;58.62
25232;BME280;13176;51.140;6.290;2023-04-04T03:58:41;102172.22;;;5.15;58.49
25232;BME280;13176;51.140;6.290;2023-04-04T04:01:08;102006.31;;;4.21;58.54
25232;BME280;13176;51.140;6.290;2023-04-04T04:03:34;102160.25;;;4.92;58.70
25232;BME280;13176;51.140;6.290;2023-04-04T04:06:01;102151.22;;;4.80;59.23
25232;BME280;13176;51.140;6.290;2023-04-04T04:08:27;102089.53;;;4.38;59.48
25232;BME280;13176;51.140;6.290;2023-04-04T04:10:54;102092.91;;;4.35;59.22
25232;BME280;13176;51.140;6.290;2023-04-04T04:13:20;102148.44;;;4.47;59.60
25232;BME280;13176;51.140;6.290;2023-04-04T04:15:47;102141.53;;;4.23;60.19
25232;BME280;13176;51.140;6.290;2023-04-04T04:18:14;102171.22;;;4.34;60.77
25232;BME280;13176;51.140;6.290;2023-04-04T04:20:40;102152.38;;;4.38;61.04
25232;BME280;13176;51.140;6.290;2023-04-04T04:23:07;102118.44;;;4.28;59.73
25232;BME280;13176;51.140;6.290;2023-04-04T04:25:33;102125.22;;;4.49;59.35
25232;BME280;13176;51.140;6.290;2023-04-04T04:28:00;102026.28;;;4.00;59.29
25232;BME280;13176;51.140;6.290;2023-04-04T04:30:26;102140.41;;;4.65;59.43
25232;BME280;13176;51.140;6.290;2023-04-04T04:32:53;102141.34;;;4.67;60.07
25232;BME280;13176;51.140;6.290;2023-04-04T04:35:19;102131.56;;;4.58;59.57
25232;BME280;13176;51.140;6.290;2023-04-04T04:37:46;102110.50;;;4.47;60.44
25232;BME280;13176;51.140;6.290;2023-04-04T04:40:12;102106.47;;;4.54;59.77
25232;BME280;13176;51.140;6.290;2023-04-04T04:42:43;102146.06;;;4.80;60.58
25232;BME280;13176;51.140;6.290;2023-04-04T04:45:10;102113.31;;;4.54;60.00
25232;BME280;13176;51.140;6.290;2023-04-04T04:47:37;102138.75;;;4.67;59.94
25232;BME280;13176;51.140;6.290;2023-04-04T04:50:04;102132.66;;;4.65;59.97
25232;BME280;13176;51.140;6.290;2023-04-04T04:52:31;102130.59;;;4.55;60.00
25232;BME280;13176;51.140;6.290;2023-04-04T04:54:57;102095.16;;;4.26;60.82
25232;BME280;13176;51.140;6.290;2023-04-04T04:57:24;102081.31;;;4.24;60.45
25232;BME280;13176;51.140;6.290;2023-04-04T04:59:50;102123.44;;;4.48;60.54
25232;BME280;13176;51.140;6.290;2023-04-04T05:02:16;102004.06;;;3.80;60.30
25232;BME280;13176;51.140;6.290;2023-04-04T05:04:43;102135.84;;;4.58;59.91
25232;BME280;13176;51.140;6.290;2023-04-04T05:07:10;102141.66;;;4.51;59.94
25232;BME280;13176;51.140;6.290;2023-04-04T05:09:37;102077.38;;;4.10;60.32
25232;BME280;13176;51.140;6.290;2023-04-04T05:12:04;102117.91;;;4.36;60.88
25232;BME280;13176;51.140;6.290;2023-04-04T05:14:30;102140.72;;;4.49;60.14
25232;BME280;13176;51.140;6.290;2023-04-04T05:16:57;102166.88;;;4.58;60.54
25232;BME280;13176;51.140;6.290;2023-04-04T05:19:23;102151.88;;;4.48;60.36
25232;BME280;13176;51.140;6.290;2023-04-04T05:21:50;102147.84;;;4.56;60.24
25232;BME280;13176;51.140;6.290;2023-04-04T05:24:17;102151.69;;;4.67;59.77
25232;BME280;13176;51.140;6.290;2023-04-04T05:26:43;102123.75;;;4.57;59.67
25232;BME280;13176;51.140;6.290;2023-04-04T05:29:10;102035.03;;;4.05;60.39
25232;BME280;13176;51.140;6.290;2023-04-04T05:31:36;102107.09;;;4.47;59.33
25232;BME280;13176;51.140;6.290;2023-04-04T05:34:03;102036.22;;;3.90;60.10
25232;BME280;13176;51.140;6.290;2023-04-04T05:36:34;102153.84;;;4.55;60.83
25232;BME280;13176;51.140;6.290;2023-04-04T05:39:01;102148.25;;;4.43;60.33
25232;BME280;13176;51.140;6.290;2023-04-04T05:41:30;102173.69;;;4.56;60.19
25232;BME280;13176;51.140;6.290;2023-04-04T05:43:57;102154.72;;;4.31;60.30
25232;BME280;13176;51.140;6.290;2023-04-04T05:46:24;102164.09;;;4.29;61.13
25232;BME280;13176;51.140;6.290;2023-04-04T05:48:51;102075.97;;;3.71;62.23
25232;BME280;13176;51.140;6.290;2023-04-04T05:51:17;102180.75;;;4.13;62.53
25232;BME280;13176;51.140;6.290;2023-04-04T05:53:44;102077.44;;;3.63;62.31
25232;BME280;13176;51.140;6.290;2023-04-04T05:56:12;102162.63;;;4.35;62.09
25232;BME280;13176;51.140;6.290;2023-04-04T05:58:39;102129.44;;;4.22;61.96
25232;BME280;13176;51.140;6.290;2023-04-04T06:01:06;102186.09;;;4.66;61.77
25232;BME280;13176;51.140;6.290;2023-04-04T06:03:34;102167.72;;;4.58;61.57
25232;BME280;13176;51.140;6.290;2023-04-04T06:06:01;102181.03;;;4.69;61.73
25232;BME280;13176;51.140;6.290;2023-04-04T06:08:30;102142.16;;;4.41;61.55
25232;BME280;13176;51.140;6.290;2023-04-04T06:11:05;102194.91;;;4.71;62.00
25232;BME280;13176;51.140;6.290;2023-04-04T06:13:32;102111.16;;;4.16;62.14
25232;BME280;13176;51.140;6.290;2023-04-04T06:15:58;102194.50;;;4.60;62.87
25232;BME280;13176;51.140;6.290;2023-04-04T06:18:24;102176.16;;;4.53;62.97
25232;BME280;13176;51.140;6.290;2023-04-04T06:20:51;102078.28;;;3.87;62.83
25232;BME280;13176;51.140;6.290;2023-04-04T06:23:17;102086.16;;;4.15;62.95
25232;BME280;13176;51.140;6.290;2023-04-04T06:25:44;102190.22;;;4.86;62.89
25232;BME280;13176;51.140;6.290;2023-04-04T06:28:11;102179.00;;;4.85;62.38
25232;BME280;13176;51.140;6.290;2023-04-04T06:30:42;102200.75;;;4.92;62.98
25232;BME280;13176;51.140;6.290;2023-04-04T06:33:13;102045.47;;;4.08;62.63
25232;BME280;13176;51.140;6.290;2023-04-04T06:35:39;102176.25;;;4.81;63.01
25232;BME280;13176;51.140;6.290;2023-04-04T06:38:06;102203.97;;;5.10;63.30
25232;BME280;13176;51.140;6.290;2023-04-04T06:40:33;102204.97;;;5.15;62.63
25232;BME280;13176;51.140;6.290;2023-04-04T06:43:00;102143.19;;;4.71;62.58
25232;BME280;13176;51.140;6.290;2023-04-04T06:45:27;102217.88;;;5.40;61.92
25232;BME280;13176;51.140;6.290;2023-04-04T06:47:55;102219.97;;;5.53;60.78
25232;BME280;13176;51.140;6.290;2023-04-04T06:50:21;102211.88;;;5.68;60.51
25232;BME280;13176;51.140;6.290;2023-04-04T06:52:48;102215.56;;;5.76;59.60
25232;BME280;13176;51.140;6.290;2023-04-04T06:55:16;102103.84;;;5.06;59.49
25232;BME280;13176;51.140;6.290;2023-04-04T06:57:42;102222.78;;;5.86;59.16
25232;BME280;13176;51.140;6.290;2023-04-04T07:00:09;102247.56;;;6.06;59.26
25232;BME280;13176;51.140;6.290;2023-04-04T07:02:36;102240.03;;;6.14;58.73
25232;BME280;13176;51.140;6.290;2023-04-04T07:05:04;102206.22;;;6.09;58.51
25232;BME280;13176;51.140;6.290;2023-04-04T07:07:34;102141.91;;;5.67;58.46
25232;BME280;13176;51.140;6.290;2023-04-04T07:10:01;102137.31;;;5.85;58.12
25232;BME280;13176;51.140;6.290;2023-04-04T07:12:29;102208.53;;;6.30;57.86
25232;BME280;13176;51.140;6.290;2023-04-04T07:14:55;102182.28;;;6.19;57.20
25232;BME280;13176;51.140;6.290;2023-04-04T07:17:22;102178.19;;;6.26;56.88
25232;BME280;13176;51.140;6.290;2023-04-04T07:19:50;102126.56;;;6.02;57.32
25232;BME280;13176;51.140;6.290;2023-04-04T07:22:17;102180.66;;;6.52;56.93
25232;BME280;13176;51.140;6.290;2023-04-04T07:24:44;102223.75;;;6.81;56.73
25232;BME280;13176;51.140;6.290;2023-04-04T07:27:10;102175.06;;;6.71;56.50
25232;BME280;13176;51.140;6.290;2023-04-04T07:29:36;102188.47;;;6.87;55.53
25232;BME280;13176;51.140;6.290;2023-04-04T07:32:03;102174.00;;;6.97;54.63
25232;BME280;13176;51.140;6.290;2023-04-04T07:34:29;102209.44;;;7.32;54.43
25232;BME280;13176;51.140;6.290;2023-04-04T07:36:56;102165.69;;;7.10;54.53
25232;BME280;13176;51.140;6.290;2023-04-04T07:39:22;102186.88;;;7.28;53.29
25232;BME280;13176;51.140;6.290;2023-04-04T07:41:49;102208.88;;;7.43;51.62
25232;BME280;13176;51.140;6.290;2023-04-04T07:44:15;102176.88;;;7.44;51.20
25232;BME280;13176;51.140;6.290;2023-04-04T07:46:41;102168.34;;;7.50;51.30
25232;BME280;13176;51.140;6.290;2023-04-04T07:49:08;102186.91;;;7.66;51.40
25232;BME280;13176;51.140;6.290;2023-04-04T07:51:34;102158.13;;;7.57;50.14
25232;BME280;13176;51.140;6.290;2023-04-04T07:54:01;102102.91;;;7.26;50.36
25232;BME280;13176;51.140;6.290;2023-04-04T07:56:27;102061.09;;;7.14;49.27
25232;BME280;13176;51.140;6.290;2023-04-04T07:58:54;102141.69;;;7.58;48.74
25232;BME280;13176;51.140;6.290;2023-04-04T08:01:20;102116.50;;;7.54;49.33
25232;BME280;13176;51.140;6.290;2023-04-04T08:03:47;102137.13;;;7.88;48.96
25232;BME280;13176;51.140;6.290;2023-04-04T08:06:15;102137.88;;;7.83;47.82
25232;BME280;13176;51.140;6.290;2023-04-04T08:08:41;102113.38;;;7.70;46.89
25232;BME280;13176;51.140;6.290;2023-04-04T08:11:08;102177.72;;;8.23;47.22
25232;BME280;13176;51.140;6.290;2023-04-04T08:13:34;102209.31;;;8.42;45.86
25232;BME280;13176;51.140;6.290;2023-04-04T08:16:01;102159.69;;;8.30;46.53
25232;BME280;13176;51.140;6.290;2023-04-04T08:18:27;102154.59;;;8.36;46.80
25232;BME280;13176;51.140;6.290;2023-04-04T08:20:53;102163.63;;;8.56;45.90
25232;BME280;13176;51.140;6.290;2023-04-04T08:23:20;102160.28;;;8.63;46.11
25232;BME280;13176;51.140;6.290;2023-04-04T08:25:46;102171.75;;;8.74;46.08
25232;BME280;13176;51.140;6.290;2023-04-04T08:28:13;102173.66;;;8.84;45.76
25232;BME280;13176;51.140;6.290;2023-04-04T08:30:40;102192.09;;;8.96;45.79
25232;BME280;13176;51.140;6.290;2023-04-04T08:33:07;102177.78;;;8.70;43.75
25232;BME280;13176;51.140;6.290;2023-04-04T08:35:34;102184.34;;;8.99;45.44
25232;BME280;13176;51.140;6.290;2023-04-04T08:38:01;102216.81;;;9.22;45.38
25232;BME280;13176;51.140;6.290;2023-04-04T08:40:31;102178.38;;;9.06;44.60
25232;BME280;13176;51.140;6.290;2023-04-04T08:43:00;102140.72;;;8.85;43.60
25232;BME280;13176;51.140;6.290;2023-04-04T08:45:28;102106.63;;;8.70;44.12
25232;BME280;13176;51.140;6.290;2023-04-04T08:47:57;102155.13;;;9.18;44.98
25232;BME280;13176;51.140;6.290;2023-04-04T08:50:24;102215.69;;;9.60;44.17
25232;BME280;13176;51.140;6.290;2023-04-04T08:52:52;102207.94;;;9.66;43.80
25232;BME280;13176;51.140;6.290;2023-04-04T08:55:18;102214.19;;;9.77;43.17
25232;BME280;13176;51.140;6.290;2023-04-04T08:57:46;102096.03;;;9.12;43.17
25232;BME280;13176;51.140;6.290;2023-04-04T09:00:13;102132.69;;;9.24;42.14
25232;BME280;13176;51.140;6.290;2023-04-04T09:05:48;102145.56;;;9.78;42.57
25232;BME280;13176;51.140;6.290;2023-04-04T09:08:16;102116.69;;;9.63;43.40
25232;BME280;13176;51.140;6.290;2023-04-04T09:10:44;102185.22;;;10.18;43.11
25232;BME280;13176;51.140;6.290;2023-04-04T09:13:11;102187.00;;;10.23;43.17
25232;BME280;13176;51.140;6.290;2023-04-04T09:15:46;102152.94;;;10.09;41.93
25232;BME280;13176;51.140;6.290;2023-04-04T09:18:13;102144.31;;;10.14;42.17
25232;BME280;13176;51.140;6.290;2023-04-04T09:20:41;102178.56;;;10.45;40.09
25232;BME280;13176;51.140;6.290;2023-04-04T09:23:12;102139.44;;;10.45;40.23
25232;BME280;13176;51.140;6.290;2023-04-04T09:25:49;102189.44;;;10.87;40.63
25232;BME280;13176;51.140;6.290;2023-04-04T09:28:21;102180.78;;;10.91;40.55
25232;BME280;13176;51.140;6.290;2023-04-04T09:30:48;102168.56;;;10.93;39.90
25232;BME280;13176;51.140;6.290;2023-04-04T09:33:16;102130.16;;;10.77;40.07
25232;BME280;13176;51.140;6.290;2023-04-04T09:38:29;102147.09;;;11.27;39.46
25232;BME280;13176;51.140;6.290;2023-04-04T09:40:56;102124.41;;;11.20;39.81
25232;BME280;13176;51.140;6.290;2023-04-04T09:43:23;102139.25;;;11.30;39.52
25232;BME280;13176;51.140;6.290;2023-04-04T09:45:50;102140.19;;;11.38;38.40
25232;BME280;13176;51.140;6.290;2023-04-04T09:48:25;102151.50;;;11.40;38.85
25232;BME280;13176;51.140;6.290;2023-04-04T09:50:52;102184.84;;;11.71;38.30
25232;BME280;13176;51.140;6.290;2023-04-04T09:53:18;102085.22;;;11.20;38.49
25232;BME280;13176;51.140;6.290;2023-04-04T09:55:50;102053.03;;;11.32;37.59
25232;BME280;13176;51.140;6.290;2023-04-04T09:58:19;102076.59;;;11.42;38.59
25232;BME280;13176;51.140;6.290;2023-04-04T10:00:58;102069.78;;;11.62;38.32
25232;BME280;13176;51.140;6.290;2023-04-04T10:03:26;102076.88;;;11.96;38.02
25232;BME280;13176;51.140;6.290;2023-04-04T10:06:01;102096.03;;;11.89;37.71
25232;BME280;13176;51.140;6.290;2023-04-04T10:08:32;102110.06;;;12.21;36.76
25232;BME280;13176;51.140;6.290;2023-04-04T10:11:01;102147.66;;;12.63;37.76
25232;BME280;13176;51.140;6.290;2023-04-04T10:13:38;102160.78;;;12.87;37.30
25232;BME280;13176;51.140;6.290;2023-04-04T10:16:09;102119.72;;;12.75;38.48
25232;BME280;13176;51.140;6.290;2023-04-04T10:18:37;102131.06;;;12.83;36.67
25232;BME280;13176;51.140;6.290;2023-04-04T10:21:07;102158.19;;;13.29;37.36
25232;BME280;13176;51.140;6.290;2023-04-04T10:23:42;102123.22;;;12.53;35.33
25232;BME280;13176;51.140;6.290;2023-04-04T10:26:11;102014.91;;;11.72;34.24
25232;BME280;13176;51.140;6.290;2023-04-04T10:28:38;102073.44;;;12.45;37.77
25232;BME280;13176;51.140;6.290;2023-04-04T10:31:09;101987.06;;;11.98;35.04
25232;BME280;13176;51.140;6.290;2023-04-04T10:36:15;102146.81;;;13.25;34.86
25232;BME280;13176;51.140;6.290;2023-04-04T10:38:53;102152.94;;;13.33;34.41
25232;BME280;13176;51.140;6.290;2023-04-04T10:41:24;102120.63;;;13.21;34.28
25232;BME280;13176;51.140;6.290;2023-04-04T10:43:55;102106.47;;;13.74;35.13
25232;BME280;13176;51.140;6.290;2023-04-04T10:46:26;102060.38;;;14.68;33.46
25232;BME280;13176;51.140;6.290;2023-04-04T10:48:59;102076.34;;;16.66;29.93
25232;BME280;13176;51.140;6.290;2023-04-04T10:51:29;102093.25;;;18.71;26.18
25232;BME280;13176;51.140;6.290;2023-04-04T10:54:00;102016.13;;;19.78;24.83
25232;BME280;13176;51.140;6.290;2023-04-04T10:56:28;102073.41;;;19.82;24.78
25232;BME280;13176;51.140;6.290;2023-04-04T10:59:09;102109.88;;;21.13;23.50
25232;BME280;13176;51.140;6.290;2023-04-04T11:01:47;102071.53;;;21.46;25.51
25232;BME280;13176;51.140;6.290;2023-04-04T11:04:15;102100.25;;;21.84;22.79
25232;BME280;13176;51.140;6.290;2023-04-04T11:07:17;102093.06;;;22.74;20.93
25232;BME280;13176;51.140;6.290;2023-04-04T11:09:53;102078.44;;;23.04;20.08
25232;BME280;13176;51.140;6.290;2023-04-04T11:12:22;102080.66;;;22.30;21.14
25232;BME280;13176;51.140;6.290;2023-04-04T11:15:11;102094.78;;;22.75;22.77
25232;BME280;13176;51.140;6.290;2023-04-04T11:20:16;102018.13;;;22.83;21.66
25232;BME280;13176;51.140;6.290;2023-04-04T11:22:43;101957.38;;;21.43;22.46
25232;BME280;13176;51.140;6.290;2023-04-04T11:27:53;101958.00;;;22.58;21.33
25232;BME280;13176;51.140;6.290;2023-04-04T11:30:20;102008.66;;;22.96;21.87
25232;BME280;13176;51.140;6.290;2023-04-04T11:32:49;102081.16;;;22.18;20.60
25232;BME280;13176;51.140;6.290;2023-04-04T11:35:31;102056.34;;;22.82;22.09
25232;BME280;13176;51.140;6.290;2023-04-04T11:37:58;102048.72;;;23.14;21.85
25232;BME280;13176;51.140;6.290;2023-04-04T11:40:33;102026.28;;;21.72;22.84
25232;BME280;13176;51.140;6.290;2023-04-04T11:43:00;102055.59;;;21.46;23.42
25232;BME280;13176;51.140;6.290;2023-04-04T11:45:33;102053.75;;;21.23;23.28
25232;BME280;13176;51.140;6.290;2023-04-04T11:48:02;102052.19;;;20.66;25.05
25232;BME280;13176;51.140;6.290;2023-04-04T11:50:40;102040.03;;;20.33;22.76
25232;BME280;13176;51.140;6.290;2023-04-04T11:53:11;101997.25;;;20.18;24.55
25232;BME280;13176;51.140;6.290;2023-04-04T11:55:42;102039.66;;;20.97;23.16
25232;BME280;13176;51.140;6.290;2023-04-04T11:58:10;102050.28;;;20.97;23.73
25232;BME280;13176;51.140;6.290;2023-04-04T12:00:39;102038.50;;;20.52;23.43
25232;BME280;13176;51.140;6.290;2023-04-04T12:03:08;102031.38;;;21.53;21.78
25232;BME280;13176;51.140;6.290;2023-04-04T12:05:38;102040.22;;;21.99;22.91
25232;BME280;13176;51.140;6.290;2023-04-04T12:08:07;102021.91;;;21.22;22.96
25232;BME280;13176;51.140;6.290;2023-04-04T12:10:34;102040.97;;;21.10;23.45
25232;BME280;13176;51.140;6.290;2023-04-04T12:13:04;102036.94;;;20.98;23.19
25232;BME280;13176;51.140;6.290;2023-04-04T12:15:33;102009.81;;;20.11;23.17
25232;BME280;13176;51.140;6.290;2023-04-04T12:20:52;101972.53;;;19.88;25.18
25232;BME280;13176;51.140;6.290;2023-04-04T12:23:18;101933.19;;;19.48;26.17
25232;BME280;13176;51.140;6.290;2023-04-04T12:25:45;101945.47;;;19.50;23.93
25232;BME280;13176;51.140;6.290;2023-04-04T12:28:15;102030.66;;;20.49;22.37
25232;BME280;13176;51.140;6.290;2023-04-04T12:30:41;102008.88;;;20.12;22.57
25232;BME280;13176;51.140;6.290;2023-04-04T12:33:08;101962.81;;;19.60;23.09
25232;BME280;13176;51.140;6.290;2023-04-04T12:35:36;102008.19;;;19.50;23.22
25232;BME280;13176;51.140;6.290;2023-04-04T12:38:04;102026.72;;;20.07;24.54
25232;BME280;13176;51.140;6.290;2023-04-04T12:40:37;102006.47;;;20.58;22.75
25232;BME280;13176;51.140;6.290;2023-04-04T12:43:05;101974.97;;;20.23;24.21
25232;BME280;13176;51.140;6.290;2023-04-04T12:45:35;101984.41;;;19.75;24.58
25232;BME280;13176;51.140;6.290;2023-04-04T12:48:14;101986.06;;;19.51;25.43
25232;BME280;13176;51.140;6.290;2023-04-04T12:50:54;102001.53;;;19.93;24.44
25232;BME280;13176;51.140;6.290;2023-04-04T12:53:26;101982.91;;;19.67;25.29
25232;BME280;13176;51.140;6.290;2023-04-04T12:55:58;102004.97;;;19.96;25.67
25232;BME280;13176;51.140;6.290;2023-04-04T12:58:25;101967.16;;;20.19;23.86
25232;BME280;13176;51.140;6.290;2023-04-04T13:00:53;101939.69;;;20.96;24.26
25232;BME280;13176;51.140;6.290;2023-04-04T13:03:41;101972.34;;;21.22;23.63
25232;BME280;13176;51.140;6.290;2023-04-04T13:06:15;101963.72;;;20.67;23.25
25232;BME280;13176;51.140;6.290;2023-04-04T13:08:51;101957.16;;;20.77;23.00
25232;BME280;13176;51.140;6.290;2023-04-04T13:11:22;101948.69;;;19.88;24.41
25232;BME280;13176;51.140;6.290;2023-04-04T13:13:59;101901.75;;;19.92;24.22
25232;BME280;13176;51.140;6.290;2023-04-04T13:16:40;101960.63;;;20.55;23.81
25232;BME280;13176;51.140;6.290;2023-04-04T13:19:07;101910.63;;;19.63;24.23
25232;BME280;13176;51.140;6.290;2023-04-04T13:21:34;101858.28;;;19.17;24.04